Airfield :
LOGIN :

Register | Disclaimer

   EN    FR    IT 

 










Legend :    VFR   Marginal VFR   IFR   Intensive IFR   Very Intensive IFR
Visi :
Ceiling :
>= 8 km
>= 3000ft
5 to 8 km
1000 to 3000 ft
1500m to 5 km
500 to 1000 ft
800 to 1500m
200 to 500 ft
< 800m
< 200 ft
Symbols :   Thunderstorms  Fog  Heavy snow  Heavy precipitations  Wind > 20 kt
SIGMETs :     Misc.  Thunderstorms  Icing  Turbulence  Mountain Waves  Volcanic Ashes







- Airport Elevation : 66 ft
- IATA code : AOK


LGKP - Karpathos

CURRENT METAR :
  • 270750Z VRB04KT CAVOK 25/15 Q1014

EXPIRED METARs :
  • 270720Z 08004KT CAVOK 24/14 Q1014
  • 270650Z 10005KT 070V140 CAVOK 24/13 Q1014
  • 270620Z VRB04KT CAVOK 24/16 Q1014
  • 270550Z 01004KT CAVOK 23/11 Q1013
  • 270520Z 32008KT CAVOK 22/17 Q1013

TAF TAF LGKP
Valid from the 27 at 06:00 until the 27 at 15:00 UTC


270500Z 2706/2715 30006KT 9999 FEW025
BECMG 2710/2712 14008KT
No reported NOTAMs for that airfield.
1 SIGMET reported for the Athinai FIR (LGGG) :
 
Embedded thunderstorms
LGGG SIGMET 1 VALID 270615/270815 LGAT
LGGG ATHINAI FIR/UIR EMBD TS OBS W OF LINE N4000 E01930 - N3400 E02200 MOV W NC=



MET'MAP, your aeronautical weather chart ! - Copyright ORBIFLY December 2007 - Disclaimer

ORBIFLY MET'MAP TEAM :

Programming & Development : Alexandra Zaïnal
Concept & Development : Baudouin d'Aumeries
Co-Development & Prog : Marc-Olivier Méhu
Technical & hardware support : Manuel Goepfert

Contact : metmap@orbifly.com




SOURCES & CREDITS :

   NOAA